Time;durP1;ratioP1;P1;durP2;ratioP2;P2;SDS_P1;SDS_P2;PMS_P1;PMS_P2;Temp;Humidity;BMP_temperature;BMP_pressure;BME280_temperature;BME280_humidity;BME280_pressure;Samples;Min_cycle;Max_cycle;Signal;HPM_P1;HPM_P2
2023/08/21 00:00:42;;;;;;;;;;;16.50;98.80;;;;;;5113020;28;19911;-70
2023/08/21 00:03:09;;;;;;;;;;;16.60;98.50;;;;;;5096636;28;19920;-68
2023/08/21 00:05:35;;;;;;;;;;;16.70;97.40;;;;;;5096007;28;19915;-69
2023/08/21 00:08:02;;;;;;;;;;;16.80;97.70;;;;;;5102200;28;19912;-69
2023/08/21 00:10:30;;;;;;;;;;;16.90;97.50;;;;;;5106327;28;19911;-69
2023/08/21 00:12:57;;;;;;;;;;;16.90;97.10;;;;;;5104506;28;19912;-70
2023/08/21 00:15:23;;;;;;;;;;;17.00;97.00;;;;;;5077039;28;19920;-69
2023/08/21 00:17:50;;;;;;;;;;;17.00;96.50;;;;;;5104806;28;19939;-69
2023/08/21 00:20:17;;;;;;;;;;;17.10;96.90;;;;;;5113112;28;19990;-70
2023/08/21 00:22:43;;;;;;;;;;;17.20;96.50;;;;;;5103497;28;19919;-68
2023/08/21 00:25:10;;;;;;;;;;;17.30;96.70;;;;;;5113205;28;19935;-69
2023/08/21 00:27:37;;;;;;;;;;;17.40;96.40;;;;;;5104276;28;19911;-70
2023/08/21 00:30:04;;;;;;;;;;;17.50;95.50;;;;;;5109295;28;19916;-70
2023/08/21 00:32:30;;;;;;;;;;;17.50;95.00;;;;;;5110463;28;19962;-68
2023/08/21 00:34:57;;;;;;;;;;;17.50;95.40;;;;;;5102177;28;19916;-70
2023/08/21 00:37:24;;;;;;;;;;;17.70;95.50;;;;;;5109409;28;20326;-71
2023/08/21 00:39:50;;;;;;;;;;;17.80;95.20;;;;;;5100882;28;19908;-70
2023/08/21 00:42:17;;;;;;;;;;;17.80;95.40;;;;;;5109064;28;19962;-70
2023/08/21 00:44:43;;;;;;;;;;;17.90;95.50;;;;;;5107649;28;20002;-69
2023/08/21 00:47:10;;;;;;;;;;;18.00;94.70;;;;;;5098896;28;20345;-70
2023/08/21 00:49:39;;;;;;;;;;;18.00;94.60;;;;;;5097447;28;19959;-69
2023/08/21 00:52:07;;;;;;;;;;;18.10;94.70;;;;;;5103680;28;19965;-70
2023/08/21 00:54:34;;;;;;;;;;;18.10;94.70;;;;;;5103514;28;19920;-73
2023/08/21 00:57:02;;;;;;;;;;;18.30;94.50;;;;;;5111239;28;20024;-68
2023/08/21 00:59:29;;;;;;;;;;;18.40;94.20;;;;;;5109910;28;20267;-72
2023/08/21 01:01:56;;;;;;;;;;;18.50;94.00;;;;;;5112701;28;19955;-70
2023/08/21 01:04:23;;;;;;;;;;;18.50;93.70;;;;;;5112937;28;20413;-68
2023/08/21 01:06:49;;;;;;;;;;;18.60;93.90;;;;;;5113818;28;20006;-70
2023/08/21 01:09:21;;;;;;;;;;;18.60;93.70;;;;;;5113260;28;19908;-71
2023/08/21 01:12:08;;;;;;;;;;;18.60;93.70;;;;;;5112292;28;19998;-69
2023/08/21 01:14:48;;;;;;;;;;;18.80;93.70;;;;;;5093312;28;19922;-70
2023/08/21 01:17:16;;;;;;;;;;;18.90;93.40;;;;;;5108056;28;19915;-69
2023/08/21 01:19:44;;;;;;;;;;;19.10;92.90;;;;;;5087054;28;19915;-71
2023/08/21 01:22:11;;;;;;;;;;;19.20;92.90;;;;;;5112777;28;19915;-68
2023/08/21 01:24:38;;;;;;;;;;;19.40;92.90;;;;;;5107120;28;19912;-70
2023/08/21 01:27:05;;;;;;;;;;;19.50;92.40;;;;;;5092890;28;19912;-70
2023/08/21 01:29:31;;;;;;;;;;;19.60;92.90;;;;;;5093145;28;19908;-69
2023/08/21 01:32:02;;;;;;;;;;;19.60;92.30;;;;;;5092711;28;19952;-70
2023/08/21 01:34:32;;;;;;;;;;;19.80;92.00;;;;;;5092395;28;19924;-69
2023/08/21 01:37:00;;;;;;;;;;;19.90;91.60;;;;;;5097267;28;20271;-71
2023/08/21 01:39:28;;;;;;;;;;;20.00;91.20;;;;;;5098530;28;19908;-69
2023/08/21 01:41:56;;;;;;;;;;;20.00;91.30;;;;;;5091091;28;19922;-69
2023/08/21 01:44:22;;;;;;;;;;;20.20;91.00;;;;;;5090774;28;20014;-69
2023/08/21 01:46:49;;;;;;;;;;;20.30;90.80;;;;;;5090176;28;19997;-70
2023/08/21 01:49:15;;;;;;;;;;;20.40;90.50;;;;;;5090675;28;20006;-69
2023/08/21 01:51:42;;;;;;;;;;;20.60;90.80;;;;;;5090417;28;19936;-71
2023/08/21 01:54:09;;;;;;;;;;;20.80;90.40;;;;;;5090672;28;19912;-69
2023/08/21 01:56:36;;;;;;;;;;;20.90;89.50;;;;;;5091588;28;19915;-71
2023/08/21 01:59:04;;;;;;;;;;;21.00;89.40;;;;;;5103585;28;20297;-70
2023/08/21 02:01:31;;;;;;;;;;;21.10;87.50;;;;;;5112862;28;19908;-71
2023/08/21 02:03:57;;;;;;;;;;;21.30;86.80;;;;;;5112901;28;19943;-72
2023/08/21 02:06:24;;;;;;;;;;;21.50;86.10;;;;;;5099479;28;20280;-69
2023/08/21 02:08:50;;;;;;;;;;;21.60;86.20;;;;;;5104358;28;19951;-70
2023/08/21 02:11:17;;;;;;;;;;;21.60;85.20;;;;;;5110660;28;19908;-70
2023/08/21 02:13:44;;;;;;;;;;;21.60;85.00;;;;;;5108010;28;19926;-71
2023/08/21 02:16:10;;;;;;;;;;;21.70;84.70;;;;;;5112212;28;19915;-70
2023/08/21 02:18:37;;;;;;;;;;;21.90;84.10;;;;;;5106822;28;19912;-70
2023/08/21 02:21:03;;;;;;;;;;;21.90;85.10;;;;;;5097293;28;20322;-71
2023/08/21 02:23:30;;;;;;;;;;;22.00;83.90;;;;;;5108327;28;19912;-70
2023/08/21 02:25:57;;;;;;;;;;;22.10;83.30;;;;;;5111997;28;19956;-71
2023/08/21 02:28:23;;;;;;;;;;;22.10;83.30;;;;;;5111895;28;19907;-70
2023/08/21 02:30:50;;;;;;;;;;;22.00;81.00;;;;;;5111044;28;19935;-69
2023/08/21 02:33:17;;;;;;;;;;;22.00;82.20;;;;;;5108057;28;19912;-70
2023/08/21 02:35:43;;;;;;;;;;;22.20;80.40;;;;;;5112050;28;19912;-70
2023/08/21 02:38:10;;;;;;;;;;;22.30;80.10;;;;;;5108360;28;19912;-70
2023/08/21 02:40:37;;;;;;;;;;;22.80;80.40;;;;;;5108092;28;19919;-71
2023/08/21 02:43:03;;;;;;;;;;;23.40;78.30;;;;;;5107939;28;19931;-70
2023/08/21 02:45:30;;;;;;;;;;;24.20;76.20;;;;;;5111447;28;19920;-69
2023/08/21 02:47:57;;;;;;;;;;;25.10;74.80;;;;;;5112908;28;19908;-71
2023/08/21 02:50:24;;;;;;;;;;;26.40;73.10;;;;;;5116343;28;19968;-70
2023/08/21 02:52:50;;;;;;;;;;;27.50;71.50;;;;;;5115731;28;20450;-68
2023/08/21 02:55:17;;;;;;;;;;;28.40;68.90;;;;;;5109599;28;19962;-72
2023/08/21 02:57:44;;;;;;;;;;;29.50;67.30;;;;;;5097616;28;19919;-70
2023/08/21 03:00:11;;;;;;;;;;;30.40;63.20;;;;;;5113532;28;19915;-69
2023/08/21 03:02:42;;;;;;;;;;;31.30;62.40;;;;;;5113192;28;19919;-72
2023/08/21 03:05:09;;;;;;;;;;;32.00;61.00;;;;;;5101956;28;20372;-71
2023/08/21 03:07:36;;;;;;;;;;;32.60;59.70;;;;;;5116020;28;20364;-70
2023/08/21 03:10:03;;;;;;;;;;;33.30;59.30;;;;;;5097288;28;20002;-70
2023/08/21 03:12:29;;;;;;;;;;;33.50;56.40;;;;;;5095992;28;19998;-69
2023/08/21 03:14:56;;;;;;;;;;;33.60;56.30;;;;;;5095392;28;20424;-70
2023/08/21 03:17:24;;;;;;;;;;;33.50;55.60;;;;;;5095153;28;20010;-71
2023/08/21 03:19:50;;;;;;;;;;;34.00;55.00;;;;;;5098304;28;19908;-71
2023/08/21 03:22:17;;;;;;;;;;;34.50;55.20;;;;;;5107378;28;19984;-71
2023/08/21 03:24:43;;;;;;;;;;;35.00;55.00;;;;;;5098444;28;20001;-69
2023/08/21 03:27:10;;;;;;;;;;;35.30;54.20;;;;;;5113760;28;19981;-69
2023/08/21 03:29:37;;;;;;;;;;;35.50;53.00;;;;;;5110905;28;19911;-69
2023/08/21 03:32:03;;;;;;;;;;;35.40;52.60;;;;;;5114981;28;19908;-70
2023/08/21 03:34:30;;;;;;;;;;;34.80;52.60;;;;;;5114278;28;19922;-72
2023/08/21 03:36:57;;;;;;;;;;;34.90;52.70;;;;;;5115503;28;19919;-71
2023/08/21 03:39:23;;;;;;;;;;;35.30;52.20;;;;;;5101428;28;19916;-69
2023/08/21 03:41:50;;;;;;;;;;;35.70;52.30;;;;;;5103171;28;20010;-69
2023/08/21 03:44:16;;;;;;;;;;;36.20;52.00;;;;;;5103191;28;19920;-69
2023/08/21 03:46:43;;;;;;;;;;;36.70;50.70;;;;;;5103982;28;19981;-70
2023/08/21 03:49:10;;;;;;;;;;;36.30;51.10;;;;;;5097309;28;19908;-70
2023/08/21 03:51:36;;;;;;;;;;;35.90;51.30;;;;;;5114713;28;19912;-70
2023/08/21 03:54:03;;;;;;;;;;;36.00;51.60;;;;;;5114708;28;19916;-69
2023/08/21 03:56:29;;;;;;;;;;;36.50;51.60;;;;;;5111508;28;19908;-69
2023/08/21 03:58:56;;;;;;;;;;;36.40;51.50;;;;;;5103389;28;19913;-69
2023/08/21 04:01:23;;;;;;;;;;;36.70;50.90;;;;;;5094837;28;19908;-71
2023/08/21 04:03:49;;;;;;;;;;;37.20;50.60;;;;;;5094390;28;19969;-72
2023/08/21 04:06:16;;;;;;;;;;;37.10;50.50;;;;;;5112567;28;19908;-69
2023/08/21 04:08:43;;;;;;;;;;;37.00;50.40;;;;;;5114230;28;19916;-71
2023/08/21 04:11:09;;;;;;;;;;;37.30;50.40;;;;;;5098662;28;19912;-70
2023/08/21 04:13:36;;;;;;;;;;;37.50;50.10;;;;;;5095912;28;19916;-69
2023/08/21 04:16:02;;;;;;;;;;;36.20;51.50;;;;;;5111014;28;20265;-71
2023/08/21 04:18:29;;;;;;;;;;;36.20;51.60;;;;;;5100241;28;19912;-69
2023/08/21 04:20:56;;;;;;;;;;;36.80;51.10;;;;;;5104202;28;19918;-70
2023/08/21 04:23:22;;;;;;;;;;;37.30;50.70;;;;;;5114555;28;19999;-70
2023/08/21 04:25:49;;;;;;;;;;;37.60;51.30;;;;;;5114351;28;19908;-71
2023/08/21 04:28:16;;;;;;;;;;;37.70;51.50;;;;;;5102182;28;20260;-69
2023/08/21 04:30:42;;;;;;;;;;;37.70;51.00;;;;;;5114721;28;19912;-70
2023/08/21 04:33:09;;;;;;;;;;;37.10;51.50;;;;;;5114427;28;19908;-69
2023/08/21 04:35:38;;;;;;;;;;;36.50;52.20;;;;;;5114049;28;20421;-69
2023/08/21 04:38:06;;;;;;;;;;;36.30;53.10;;;;;;5091658;28;19947;-70
2023/08/21 04:40:33;;;;;;;;;;;36.10;52.50;;;;;;5112404;28;19998;-70
2023/08/21 04:43:00;;;;;;;;;;;36.40;52.60;;;;;;5113309;28;19912;-70
2023/08/21 04:45:26;;;;;;;;;;;35.30;53.40;;;;;;5113834;28;19920;-70
2023/08/21 04:47:53;;;;;;;;;;;35.50;53.40;;;;;;5100374;28;19912;-69
2023/08/21 04:50:20;;;;;;;;;;;35.60;53.70;;;;;;5093740;28;20006;-70
2023/08/21 04:52:46;;;;;;;;;;;35.40;53.40;;;;;;5112926;28;19908;-71
2023/08/21 04:55:13;;;;;;;;;;;35.10;53.40;;;;;;5095523;28;19923;-71
2023/08/21 04:57:39;;;;;;;;;;;35.30;53.50;;;;;;5084390;28;19955;-71
2023/08/21 05:00:06;;;;;;;;;;;35.30;53.00;;;;;;5094238;28;19913;-70
2023/08/21 05:02:34;;;;;;;;;;;35.70;53.40;;;;;;5093563;28;20273;-69
2023/08/21 05:05:01;;;;;;;;;;;35.20;52.90;;;;;;5100114;28;20380;-70
2023/08/21 05:07:27;;;;;;;;;;;35.20;53.40;;;;;;5102766;28;19918;-69
2023/08/21 05:09:54;;;;;;;;;;;34.90;53.40;;;;;;5091997;28;20357;-70
2023/08/21 05:12:20;;;;;;;;;;;34.40;54.60;;;;;;5092969;28;19912;-68
2023/08/21 05:14:47;;;;;;;;;;;34.00;54.60;;;;;;5097678;28;19916;-70
2023/08/21 05:17:14;;;;;;;;;;;34.00;55.10;;;;;;5086260;28;20428;-69
2023/08/21 05:19:40;;;;;;;;;;;33.70;55.10;;;;;;5096148;28;19908;-70
2023/08/21 05:22:07;;;;;;;;;;;33.80;54.80;;;;;;5097485;28;19915;-71
2023/08/21 05:24:34;;;;;;;;;;;32.90;56.20;;;;;;5105887;28;19912;-70
2023/08/21 05:27:00;;;;;;;;;;;32.50;56.40;;;;;;5111824;28;19998;-72
2023/08/21 05:29:27;;;;;;;;;;;32.20;56.60;;;;;;5100130;28;19991;-70
2023/08/21 05:31:53;;;;;;;;;;;31.30;57.70;;;;;;5113002;28;19908;-70
2023/08/21 05:34:20;;;;;;;;;;;31.50;57.70;;;;;;5112276;28;20380;-70
2023/08/21 05:36:47;;;;;;;;;;;31.90;57.70;;;;;;5111895;28;19919;-71
2023/08/21 05:39:13;;;;;;;;;;;32.10;57.00;;;;;;5112080;28;20006;-70
2023/08/21 05:41:40;;;;;;;;;;;32.00;56.40;;;;;;5112086;28;19958;-69
2023/08/21 05:44:06;;;;;;;;;;;32.60;56.70;;;;;;5106658;28;19919;-72
2023/08/21 05:46:33;;;;;;;;;;;32.80;56.30;;;;;;5106171;28;19907;-70
2023/08/21 05:49:00;;;;;;;;;;;33.60;55.40;;;;;;5102535;28;20353;-72
2023/08/21 05:51:26;;;;;;;;;;;34.30;55.10;;;;;;5105715;28;19912;-70
2023/08/21 05:53:53;;;;;;;;;;;34.10;54.10;;;;;;5098269;28;19923;-71
2023/08/21 05:56:20;;;;;;;;;;;33.90;54.80;;;;;;5111535;28;19912;-71
2023/08/21 05:58:47;;;;;;;;;;;33.30;54.70;;;;;;5111214;28;19912;-70
2023/08/21 06:01:13;;;;;;;;;;;33.10;54.50;;;;;;5111015;28;19908;-72
2023/08/21 06:03:40;;;;;;;;;;;32.90;54.20;;;;;;5112411;28;19908;-71
2023/08/21 06:06:06;;;;;;;;;;;33.40;54.20;;;;;;5111788;28;20314;-71
2023/08/21 06:08:33;;;;;;;;;;;32.30;55.00;;;;;;5098534;28;19907;-71
2023/08/21 06:11:00;;;;;;;;;;;32.30;55.10;;;;;;5111419;28;19912;-71
2023/08/21 06:13:26;;;;;;;;;;;32.10;55.50;;;;;;5112544;28;19972;-71
2023/08/21 06:15:54;;;;;;;;;;;32.10;56.20;;;;;;5109563;28;19912;-71
2023/08/21 06:18:20;;;;;;;;;;;32.40;55.10;;;;;;5097659;28;20425;-72
2023/08/21 06:20:47;;;;;;;;;;;31.60;56.40;;;;;;5110766;28;19907;-70
2023/08/21 06:23:13;;;;;;;;;;;31.70;56.30;;;;;;5111847;28;19912;-71
2023/08/21 06:25:44;;;;;;;;;;;31.60;57.00;;;;;;5106334;28;19957;-72
2023/08/21 06:28:10;;;;;;;;;;;31.60;56.80;;;;;;5097471;28;19912;-70
2023/08/21 06:30:37;;;;;;;;;;;31.50;57.20;;;;;;5091361;28;20335;-69
2023/08/21 06:33:04;;;;;;;;;;;30.40;58.90;;;;;;5101452;28;19967;-71
2023/08/21 06:35:30;;;;;;;;;;;29.60;60.90;;;;;;5093275;28;19916;-70
2023/08/21 06:37:58;;;;;;;;;;;28.90;62.70;;;;;;5098552;28;20380;-74
2023/08/21 06:40:24;;;;;;;;;;;28.20;64.10;;;;;;5110759;28;19995;-70
2023/08/21 06:42:52;;;;;;;;;;;27.90;65.20;;;;;;5110914;28;20526;-71
2023/08/21 06:45:19;;;;;;;;;;;27.70;65.40;;;;;;5110694;28;20400;-71
2023/08/21 06:47:45;;;;;;;;;;;27.30;66.20;;;;;;5095913;28;19912;-72
2023/08/21 06:50:12;;;;;;;;;;;27.40;65.60;;;;;;5095143;28;19908;-70
2023/08/21 06:52:39;;;;;;;;;;;26.60;66.70;;;;;;5105148;28;19958;-69
2023/08/21 06:55:06;;;;;;;;;;;25.50;67.90;;;;;;5107718;28;19927;-71
2023/08/21 06:57:33;;;;;;;;;;;24.30;70.80;;;;;;5105208;28;19993;-71
2023/08/21 06:59:59;;;;;;;;;;;23.50;72.70;;;;;;5110287;28;20280;-70
2023/08/21 07:02:26;;;;;;;;;;;22.70;74.50;;;;;;5107920;28;19956;-69
2023/08/21 07:04:52;;;;;;;;;;;22.00;76.40;;;;;;5098152;28;20002;-70
2023/08/21 07:07:19;;;;;;;;;;;21.50;77.90;;;;;;5102590;28;19912;-71
2023/08/21 07:09:46;;;;;;;;;;;21.10;78.70;;;;;;5109297;28;19911;-71
2023/08/21 07:12:12;;;;;;;;;;;20.70;79.60;;;;;;5108191;28;19915;-71
2023/08/21 07:14:39;;;;;;;;;;;20.30;81.20;;;;;;5111041;28;20283;-69
2023/08/21 07:17:05;;;;;;;;;;;19.90;82.30;;;;;;5098315;28;19951;-70
2023/08/21 07:19:32;;;;;;;;;;;19.50;83.50;;;;;;5105942;28;19999;-70
2023/08/21 07:21:58;;;;;;;;;;;19.40;84.30;;;;;;5110351;28;20038;-69
2023/08/21 07:24:25;;;;;;;;;;;19.20;85.20;;;;;;5110165;28;20053;-69
2023/08/21 07:26:52;;;;;;;;;;;19.00;86.00;;;;;;5101794;28;19912;-70
2023/08/21 07:29:18;;;;;;;;;;;18.90;87.00;;;;;;5107258;28;20227;-68
2023/08/21 07:31:45;;;;;;;;;;;18.80;88.10;;;;;;5110659;28;20376;-71
2023/08/21 07:34:12;;;;;;;;;;;18.60;89.00;;;;;;5113173;27;21057;-72
2023/08/21 07:36:38;;;;;;;;;;;18.60;89.70;;;;;;5108590;28;19915;-70
2023/08/21 07:39:05;;;;;;;;;;;18.50;90.50;;;;;;5114696;28;19923;-71
2023/08/21 07:41:32;;;;;;;;;;;18.40;90.80;;;;;;5115208;28;19907;-72
2023/08/21 07:43:58;;;;;;;;;;;18.40;91.10;;;;;;5112792;28;19916;-71
2023/08/21 07:46:25;;;;;;;;;;;18.40;91.50;;;;;;5099992;28;19922;-72
2023/08/21 07:48:53;;;;;;;;;;;18.30;92.00;;;;;;5114317;27;20360;-71
2023/08/21 07:51:20;;;;;;;;;;;18.30;92.40;;;;;;5114394;28;20378;-70
2023/08/21 07:53:47;;;;;;;;;;;18.20;92.60;;;;;;5113907;27;19927;-72
2023/08/21 07:56:13;;;;;;;;;;;18.10;92.50;;;;;;5087926;28;19908;-68
2023/08/21 07:58:40;;;;;;;;;;;17.90;93.10;;;;;;5095628;28;19950;-70
2023/08/21 08:01:09;;;;;;;;;;;17.80;93.40;;;;;;5098902;28;19916;-70
2023/08/21 08:03:36;;;;;;;;;;;17.70;93.60;;;;;;5114947;27;19916;-68
2023/08/21 08:06:02;;;;;;;;;;;17.70;93.80;;;;;;5111424;28;19916;-71
2023/08/21 08:08:29;;;;;;;;;;;17.70;93.80;;;;;;5112668;28;19912;-70
2023/08/21 08:11:00;;;;;;;;;;;17.70;93.60;;;;;;5136757;27;19911;-68
2023/08/21 08:13:27;;;;;;;;;;;17.60;93.00;;;;;;5103466;28;19912;-71
2023/08/21 08:15:54;;;;;;;;;;;17.60;93.10;;;;;;5109712;28;19938;-72
2023/08/21 08:18:20;;;;;;;;;;;17.50;93.10;;;;;;5094952;28;20016;-70
2023/08/21 08:20:47;;;;;;;;;;;17.40;93.50;;;;;;5095218;28;19912;-70
2023/08/21 08:23:13;;;;;;;;;;;17.40;93.40;;;;;;5085808;28;19918;-70
2023/08/21 08:25:40;;;;;;;;;;;17.40;93.40;;;;;;5092867;28;20008;-69
2023/08/21 08:28:07;;;;;;;;;;;17.40;93.70;;;;;;5104055;28;20010;-69
2023/08/21 08:30:34;;;;;;;;;;;17.30;94.00;;;;;;5096573;28;19918;-70
2023/08/21 08:33:01;;;;;;;;;;;17.30;94.30;;;;;;5096072;28;19919;-69
2023/08/21 08:35:27;;;;;;;;;;;17.30;94.70;;;;;;5106728;28;20296;-71
2023/08/21 08:37:54;;;;;;;;;;;17.30;95.30;;;;;;5113314;28;20357;-71
2023/08/21 08:40:22;;;;;;;;;;;17.20;96.10;;;;;;5114705;28;20455;-69
2023/08/21 08:42:49;;;;;;;;;;;17.20;96.90;;;;;;5110549;28;19917;-70
2023/08/21 08:45:23;;;;;;;;;;;17.20;97.60;;;;;;5112019;28;19923;-70
2023/08/21 08:47:49;;;;;;;;;;;17.20;98.40;;;;;;5075992;28;20003;-72
2023/08/21 08:50:17;;;;;;;;;;;17.20;99.00;;;;;;5106290;28;21250;-69
2023/08/21 08:52:43;;;;;;;;;;;17.20;99.40;;;;;;5113853;28;19911;-69
2023/08/21 08:55:11;;;;;;;;;;;17.20;99.90;;;;;;5114277;27;20010;-68
2023/08/21 08:57:37;;;;;;;;;;;17.20;99.90;;;;;;5075987;28;19912;-68
2023/08/21 09:00:04;;;;;;;;;;;17.20;99.90;;;;;;5104751;28;19911;-71
2023/08/21 09:02:31;;;;;;;;;;;17.20;99.90;;;;;;5114524;28;19908;-70
2023/08/21 09:04:58;;;;;;;;;;;17.00;99.90;;;;;;5114145;28;19981;-71
2023/08/21 09:07:25;;;;;;;;;;;17.10;99.90;;;;;;5101435;28;19919;-70
2023/08/21 09:09:52;;;;;;;;;;;17.10;99.90;;;;;;5110798;27;19912;-70
2023/08/21 09:12:20;;;;;;;;;;;17.00;99.90;;;;;;5086311;28;19919;-71
2023/08/21 09:14:47;;;;;;;;;;;17.00;99.90;;;;;;5108706;27;20012;-69
2023/08/21 09:17:13;;;;;;;;;;;16.90;99.90;;;;;;5097606;28;19916;-69
2023/08/21 09:19:40;;;;;;;;;;;16.80;99.90;;;;;;5099250;28;20376;-70
2023/08/21 09:22:09;;;;;;;;;;;16.80;99.90;;;;;;5113814;28;19908;-70
2023/08/21 09:24:36;;;;;;;;;;;16.80;99.90;;;;;;5113630;28;19919;-70
2023/08/21 09:27:04;;;;;;;;;;;16.80;99.90;;;;;;5102480;28;19922;-73
2023/08/21 09:29:41;;;;;;;;;;;16.80;99.90;;;;;;5079401;28;20330;-71
2023/08/21 09:32:07;;;;;;;;;;;16.80;99.90;;;;;;5113846;28;19915;-70
2023/08/21 09:34:36;;;;;;;;;;;16.70;99.90;;;;;;5094871;28;19926;-70
2023/08/21 09:37:07;;;;;;;;;;;16.70;99.90;;;;;;5112968;28;19915;-69
2023/08/21 09:39:37;;;;;;;;;;;16.60;99.90;;;;;;5113588;27;20279;-71
2023/08/21 09:42:07;;;;;;;;;;;16.60;99.90;;;;;;5093183;28;19922;-69
2023/08/21 09:44:44;;;;;;;;;;;16.50;99.90;;;;;;5112897;27;20368;-68
2023/08/21 09:47:11;;;;;;;;;;;16.50;99.90;;;;;;5094392;28;20015;-70
2023/08/21 09:49:39;;;;;;;;;;;16.40;99.90;;;;;;5095233;28;19947;-69
2023/08/21 09:52:06;;;;;;;;;;;16.50;99.90;;;;;;5107424;28;19912;-68
2023/08/21 09:54:35;;;;;;;;;;;16.30;99.90;;;;;;5104463;28;20014;-68
2023/08/21 09:57:05;;;;;;;;;;;16.50;99.90;;;;;;5091346;28;19912;-70
2023/08/21 09:59:32;;;;;;;;;;;16.40;99.90;;;;;;5093317;28;19908;-69
2023/08/21 10:02:03;;;;;;;;;;;16.40;99.90;;;;;;5103105;28;19962;-69
2023/08/21 10:04:30;;;;;;;;;;;16.40;99.90;;;;;;5086840;28;20380;-71
2023/08/21 10:06:57;;;;;;;;;;;16.40;99.90;;;;;;5077370;28;19922;-70
2023/08/21 10:09:25;;;;;;;;;;;16.40;99.90;;;;;;5094205;28;19912;-70
2023/08/21 10:11:56;;;;;;;;;;;16.40;99.90;;;;;;5112411;28;19915;-70
2023/08/21 10:14:24;;;;;;;;;;;16.40;99.90;;;;;;5089506;28;19916;-71
2023/08/21 10:16:54;;;;;;;;;;;16.30;99.90;;;;;;5112451;28;19912;-67
2023/08/21 10:19:21;;;;;;;;;;;16.30;99.90;;;;;;5077500;28;19908;-69
2023/08/21 10:21:51;;;;;;;;;;;16.30;99.90;;;;;;5108031;28;20003;-70
2023/08/21 10:24:33;;;;;;;;;;;16.30;99.90;;;;;;5084647;28;20299;-70
2023/08/21 10:27:00;;;;;;;;;;;16.20;99.90;;;;;;5112103;28;19947;-68
2023/08/21 10:29:27;;;;;;;;;;;16.10;99.90;;;;;;5094091;28;19915;-69
2023/08/21 10:32:07;;;;;;;;;;;16.20;99.90;;;;;;5094568;28;19955;-70
2023/08/21 10:34:35;;;;;;;;;;;16.20;99.90;;;;;;5100013;28;19987;-70
2023/08/21 10:37:06;;;;;;;;;;;16.10;99.90;;;;;;5111608;28;20268;-66
2023/08/21 10:39:35;;;;;;;;;;;16.10;99.90;;;;;;5111913;28;19912;-69
2023/08/21 10:42:08;;;;;;;;;;;16.10;99.90;;;;;;5109633;28;19980;-69
2023/08/21 10:44:35;;;;;;;;;;;16.10;99.90;;;;;;5095978;28;19927;-71
2023/08/21 10:47:22;;;;;;;;;;;16.10;99.90;;;;;;5096917;28;19912;-69
2023/08/21 10:49:53;;;;;;;;;;;16.20;99.90;;;;;;5093813;28;19908;-70
2023/08/21 10:52:24;;;;;;;;;;;16.10;99.90;;;;;;5111222;28;19911;-68
2023/08/21 10:54:52;;;;;;;;;;;16.10;99.90;;;;;;5107464;28;20404;-70
2023/08/21 10:57:19;;;;;;;;;;;16.10;99.90;;;;;;5112377;28;19912;-71
2023/08/21 11:00:09;;;;;;;;;;;16.10;99.90;;;;;;5112815;28;19907;-68
2023/08/21 11:02:46;;;;;;;;;;;16.10;99.90;;;;;;5091235;28;20444;-70
2023/08/21 11:05:13;;;;;;;;;;;16.10;99.90;;;;;;5109275;28;19908;-72
2023/08/21 11:07:46;;;;;;;;;;;16.10;99.90;;;;;;5107372;28;19912;-70
2023/08/21 11:10:23;;;;;;;;;;;16.10;99.90;;;;;;5113353;28;19947;-68
2023/08/21 11:12:55;;;;;;;;;;;16.20;99.90;;;;;;5114935;28;19908;-72
2023/08/21 11:15:22;;;;;;;;;;;16.10;99.90;;;;;;5084434;28;19927;-72
2023/08/21 11:17:59;;;;;;;;;;;16.10;99.90;;;;;;5095596;28;20011;-71
2023/08/21 11:20:33;;;;;;;;;;;16.10;99.90;;;;;;5091668;28;19912;-68
2023/08/21 11:23:06;;;;;;;;;;;16.00;99.90;;;;;;5115309;28;19911;-70
2023/08/21 11:25:33;;;;;;;;;;;15.90;99.90;;;;;;5098533;28;19912;-71
2023/08/21 11:28:03;;;;;;;;;;;15.90;99.90;;;;;;5116762;28;19907;-70
2023/08/21 11:30:33;;;;;;;;;;;15.80;99.90;;;;;;5101002;28;19912;-71
2023/08/21 11:33:09;;;;;;;;;;;15.70;99.90;;;;;;5096189;28;19908;-70
2023/08/21 11:35:36;;;;;;;;;;;15.70;99.90;;;;;;5096125;28;20297;-71
2023/08/21 11:38:03;;;;;;;;;;;15.60;99.90;;;;;;5095966;28;19915;-69
2023/08/21 11:40:30;;;;;;;;;;;15.50;99.90;;;;;;5109660;28;20299;-69
2023/08/21 11:43:08;;;;;;;;;;;15.50;99.90;;;;;;5112471;28;19968;-67
2023/08/21 11:45:35;;;;;;;;;;;15.40;99.90;;;;;;5115896;28;20382;-69
2023/08/21 11:48:03;;;;;;;;;;;15.30;99.90;;;;;;5115955;28;20280;-67
2023/08/21 11:50:29;;;;;;;;;;;15.30;99.90;;;;;;5102040;28;19912;-68
2023/08/21 11:52:56;;;;;;;;;;;15.20;99.90;;;;;;5096125;28;19908;-68
2023/08/21 11:55:23;;;;;;;;;;;15.10;99.90;;;;;;5106603;28;20022;-69
2023/08/21 11:57:50;;;;;;;;;;;15.10;99.90;;;;;;5116257;28;19911;-70
2023/08/21 12:00:22;;;;;;;;;;;15.00;99.90;;;;;;5100031;28;19916;-70
2023/08/21 12:02:59;;;;;;;;;;;14.90;99.90;;;;;;5078628;28;19908;-69
2023/08/21 12:05:26;;;;;;;;;;;14.90;99.90;;;;;;5096624;28;19912;-70
2023/08/21 12:07:53;;;;;;;;;;;14.90;99.90;;;;;;5096383;28;19912;-69
2023/08/21 12:10:23;;;;;;;;;;;14.80;99.90;;;;;;5110842;28;19918;-68
2023/08/21 12:12:49;;;;;;;;;;;14.90;99.90;;;;;;5090040;28;20315;-68
2023/08/21 12:15:16;;;;;;;;;;;14.80;99.90;;;;;;5104451;28;19916;-69
2023/08/21 12:17:43;;;;;;;;;;;14.80;99.90;;;;;;5115463;28;19961;-69
2023/08/21 12:20:12;;;;;;;;;;;14.70;99.90;;;;;;5098102;28;19912;-70
2023/08/21 12:22:39;;;;;;;;;;;14.70;99.90;;;;;;5095276;28;19908;-69
2023/08/21 12:25:07;;;;;;;;;;;14.70;99.90;;;;;;5103802;28;19950;-67
2023/08/21 12:27:33;;;;;;;;;;;14.70;99.90;;;;;;5115525;28;19914;-71
2023/08/21 12:30:00;;;;;;;;;;;14.70;99.90;;;;;;5100249;28;20388;-69
2023/08/21 12:32:27;;;;;;;;;;;14.70;99.90;;;;;;5076790;28;19909;-69
2023/08/21 12:34:53;;;;;;;;;;;14.70;99.90;;;;;;5099323;28;20006;-68
2023/08/21 12:37:20;;;;;;;;;;;14.60;99.90;;;;;;5097193;28;19964;-70
2023/08/21 12:39:47;;;;;;;;;;;14.70;99.90;;;;;;5101905;28;20415;-68
2023/08/21 12:42:13;;;;;;;;;;;14.70;99.90;;;;;;5094705;28;19957;-72
2023/08/21 12:44:40;;;;;;;;;;;14.70;99.90;;;;;;5094636;28;19927;-70
2023/08/21 12:47:07;;;;;;;;;;;14.80;99.90;;;;;;5096504;28;19961;-69
2023/08/21 12:49:34;;;;;;;;;;;14.70;99.90;;;;;;5112839;28;20002;-72
2023/08/21 12:52:02;;;;;;;;;;;14.80;99.90;;;;;;5096739;28;19915;-69
2023/08/21 12:54:28;;;;;;;;;;;14.70;99.90;;;;;;5114865;28;19923;-70
2023/08/21 12:56:56;;;;;;;;;;;14.70;99.90;;;;;;5098628;28;19942;-68
2023/08/21 12:59:23;;;;;;;;;;;14.70;99.90;;;;;;5106227;28;19912;-70
2023/08/21 13:01:49;;;;;;;;;;;14.60;99.90;;;;;;5115225;28;19908;-69
2023/08/21 13:04:17;;;;;;;;;;;14.50;99.90;;;;;;5114997;28;19908;-70
2023/08/21 13:06:44;;;;;;;;;;;14.50;99.90;;;;;;5114946;28;19918;-68
2023/08/21 13:09:10;;;;;;;;;;;14.50;99.90;;;;;;5101785;28;20029;-68
2023/08/21 13:11:37;;;;;;;;;;;14.40;99.90;;;;;;5104164;28;20330;-68
2023/08/21 13:14:03;;;;;;;;;;;14.40;99.90;;;;;;5114618;28;19912;-68
2023/08/21 13:16:30;;;;;;;;;;;14.40;99.90;;;;;;5114587;28;20364;-69
2023/08/21 13:18:57;;;;;;;;;;;14.30;99.90;;;;;;5112951;28;19908;-69
2023/08/21 13:21:23;;;;;;;;;;;14.30;99.90;;;;;;5114099;28;19911;-70
2023/08/21 13:23:50;;;;;;;;;;;14.20;99.90;;;;;;5105434;28;19976;-69
2023/08/21 13:26:16;;;;;;;;;;;14.20;99.90;;;;;;5107590;28;19908;-68
2023/08/21 13:28:43;;;;;;;;;;;14.20;99.90;;;;;;5112292;28;20002;-69
2023/08/21 13:31:11;;;;;;;;;;;14.20;99.90;;;;;;5113186;28;20045;-68
2023/08/21 13:33:47;;;;;;;;;;;14.10;99.90;;;;;;5114136;28;19908;-69
2023/08/21 13:36:15;;;;;;;;;;;14.10;99.90;;;;;;5114205;28;19912;-68
2023/08/21 13:38:41;;;;;;;;;;;14.10;99.90;;;;;;5113293;28;19986;-70
2023/08/21 13:41:09;;;;;;;;;;;14.10;99.90;;;;;;5114085;28;20360;-70
2023/08/21 13:43:36;;;;;;;;;;;14.00;99.90;;;;;;5114065;28;20383;-70
2023/08/21 13:46:06;;;;;;;;;;;14.00;99.90;;;;;;5114039;28;19953;-70
2023/08/21 13:48:32;;;;;;;;;;;13.90;99.90;;;;;;5104361;28;19912;-69
2023/08/21 13:50:59;;;;;;;;;;;13.90;99.90;;;;;;5113933;28;19950;-67
2023/08/21 13:53:26;;;;;;;;;;;13.80;99.90;;;;;;5114097;28;19937;-69
2023/08/21 13:55:52;;;;;;;;;;;13.90;99.90;;;;;;5114092;28;19920;-69
2023/08/21 13:58:19;;;;;;;;;;;13.80;99.90;;;;;;5106276;28;19947;-70
2023/08/21 14:00:46;;;;;;;;;;;13.70;99.90;;;;;;5093420;28;19915;-69
2023/08/21 14:03:12;;;;;;;;;;;13.60;99.90;;;;;;5093529;28;19915;-69
2023/08/21 14:05:39;;;;;;;;;;;13.60;99.90;;;;;;5093279;28;19961;-68
2023/08/21 14:08:05;;;;;;;;;;;13.60;99.90;;;;;;5106627;28;19912;-68
2023/08/21 14:10:32;;;;;;;;;;;13.60;99.90;;;;;;5093106;28;20329;-69
2023/08/21 14:12:59;;;;;;;;;;;13.60;99.90;;;;;;5093075;28;19908;-68
2023/08/21 14:15:25;;;;;;;;;;;13.50;99.90;;;;;;5093364;28;20296;-69
2023/08/21 14:17:52;;;;;;;;;;;13.50;99.90;;;;;;5096014;28;19912;-70